Time;durP1;ratioP1;P1;durP2;ratioP2;P2;SDS_P1;SDS_P2;PMS_P1;PMS_P2;Temp;Humidity;BMP_temperature;BMP_pressure;BME280_temperature;BME280_humidity;BME280_pressure;Samples;Min_cycle;Max_cycle;Signal;HPM_P1;HPM_P2
2022/03/10 00:02:23;;;;;;;8.73;5.32;;;2.50;99.90;;;;;;5071138;28;20036;-51
2022/03/10 00:04:49;;;;;;;10.13;5.68;;;2.40;99.90;;;;;;5075044;28;20043;-52
2022/03/10 00:07:14;;;;;;;9.00;5.55;;;2.40;99.90;;;;;;5075275;28;20036;-50
2022/03/10 00:09:40;;;;;;;9.07;6.03;;;2.40;99.90;;;;;;5075574;28;20016;-50
2022/03/10 00:12:06;;;;;;;9.93;6.60;;;2.40;99.90;;;;;;5074303;28;20029;-49
2022/03/10 00:14:32;;;;;;;7.97;5.32;;;2.40;99.90;;;;;;5075042;28;20527;-49
2022/03/10 00:16:57;;;;;;;8.55;5.45;;;2.40;99.90;;;;;;5075517;28;20105;-51
2022/03/10 00:19:23;;;;;;;9.18;5.85;;;2.40;99.90;;;;;;5075213;28;20024;-50
2022/03/10 00:21:49;;;;;;;8.75;5.80;;;2.40;99.90;;;;;;5070762;28;20031;-52
2022/03/10 00:24:15;;;;;;;13.73;6.65;;;2.40;99.90;;;;;;5071894;28;20542;-50
2022/03/10 00:26:42;;;;;;;7.57;5.40;;;2.40;99.90;;;;;;5059288;28;20033;-48
2022/03/10 00:29:08;;;;;;;12.45;7.15;;;2.50;99.90;;;;;;5071903;28;20129;-50
2022/03/10 00:31:34;;;;;;;7.95;6.00;;;2.50;99.90;;;;;;5071385;28;20507;-50
2022/03/10 00:33:59;;;;;;;9.70;6.40;;;2.40;99.90;;;;;;5071041;28;20028;-50
2022/03/10 00:36:25;;;;;;;8.00;5.63;;;2.50;99.90;;;;;;5071267;28;20017;-50
2022/03/10 00:38:51;;;;;;;8.43;5.85;;;2.50;99.90;;;;;;5071679;28;20028;-52
2022/03/10 00:41:17;;;;;;;7.15;5.53;;;2.50;99.90;;;;;;5071438;28;20029;-50
2022/03/10 00:43:42;;;;;;;9.63;6.63;;;2.50;99.90;;;;;;5071097;28;20024;-54
2022/03/10 00:46:08;;;;;;;9.85;6.63;;;2.50;99.90;;;;;;5071893;28;20155;-50
2022/03/10 00:48:34;;;;;;;10.95;6.50;;;2.40;99.90;;;;;;5071720;28;20052;-53
2022/03/10 00:50:59;;;;;;;8.10;5.80;;;2.40;99.90;;;;;;5071533;28;20559;-51
2022/03/10 00:53:25;;;;;;;9.48;6.32;;;2.30;99.90;;;;;;5070638;28;20060;-54
2022/03/10 00:55:51;;;;;;;10.35;6.28;;;2.30;99.90;;;;;;5055702;28;20021;-52
2022/03/10 00:58:17;;;;;;;8.48;6.80;;;2.30;99.90;;;;;;5053933;28;20028;-49
2022/03/10 01:00:42;;;;;;;9.70;6.60;;;2.30;99.90;;;;;;5070824;28;20082;-50
2022/03/10 01:03:08;;;;;;;8.40;6.43;;;2.30;99.90;;;;;;5070752;28;20037;-50
2022/03/10 01:05:34;;;;;;;8.18;6.28;;;2.30;99.90;;;;;;5057423;28;20065;-51
2022/03/10 01:07:59;;;;;;;10.15;6.15;;;2.30;99.90;;;;;;5071191;28;20033;-51
2022/03/10 01:10:25;;;;;;;10.57;6.60;;;2.30;99.90;;;;;;5071029;28;20116;-50
2022/03/10 01:12:51;;;;;;;9.43;5.88;;;2.30;99.90;;;;;;5071145;28;20028;-49
2022/03/10 01:15:23;;;;;;;9.73;6.68;;;2.30;99.90;;;;;;5067054;28;20036;-52
2022/03/10 01:17:49;;;;;;;10.65;6.55;;;2.20;99.90;;;;;;5049906;28;20029;-51
2022/03/10 01:20:15;;;;;;;9.50;6.10;;;2.20;99.90;;;;;;5071150;28;20032;-50
2022/03/10 01:22:41;;;;;;;8.73;6.57;;;2.20;99.90;;;;;;5052545;28;20166;-53
2022/03/10 01:25:08;;;;;;;9.18;5.97;;;2.10;99.90;;;;;;5070747;28;20111;-54
2022/03/10 01:27:34;;;;;;;10.82;6.85;;;2.10;99.90;;;;;;5070599;28;20037;-50
2022/03/10 01:30:00;;;;;;;9.80;6.53;;;2.10;99.90;;;;;;5070727;28;20051;-51
2022/03/10 01:32:25;;;;;;;12.15;6.60;;;2.00;99.90;;;;;;5069843;28;20500;-51
2022/03/10 01:34:52;;;;;;;9.98;6.43;;;2.00;99.90;;;;;;5070816;28;20107;-51
2022/03/10 01:37:18;;;;;;;10.30;6.93;;;2.00;99.90;;;;;;5071026;28;20028;-51
2022/03/10 01:39:43;;;;;;;12.70;6.75;;;2.00;99.90;;;;;;5070447;28;20104;-52
2022/03/10 01:42:09;;;;;;;12.20;6.60;;;2.00;99.90;;;;;;5070153;28;20052;-51
2022/03/10 01:44:35;;;;;;;8.68;6.18;;;1.90;99.90;;;;;;5070133;28;20098;-49
2022/03/10 01:47:01;;;;;;;12.93;7.07;;;1.90;99.90;;;;;;5070214;28;20057;-50
2022/03/10 01:49:27;;;;;;;9.45;6.82;;;1.90;99.90;;;;;;5070428;28;20083;-51
2022/03/10 01:51:53;;;;;;;10.20;6.40;;;1.90;99.90;;;;;;5069656;28;20024;-52
2022/03/10 01:54:20;;;;;;;9.70;6.75;;;1.90;99.90;;;;;;5069947;28;20432;-50
2022/03/10 01:56:47;;;;;;;8.95;7.38;;;1.90;99.90;;;;;;5070528;28;20025;-50
2022/03/10 01:59:13;;;;;;;9.55;6.55;;;1.90;99.90;;;;;;5067724;28;20508;-53
2022/03/10 02:01:39;;;;;;;9.93;7.20;;;1.80;99.90;;;;;;5068048;28;20032;-51
2022/03/10 02:04:04;;;;;;;10.93;7.07;;;1.80;99.90;;;;;;5068106;28;20083;-52
2022/03/10 02:06:31;;;;;;;9.52;7.15;;;1.80;99.90;;;;;;5069873;28;20032;-51
2022/03/10 02:11:40;;;;;;;11.38;6.93;;;1.80;99.90;;;;;;5058768;28;20062;-54
2022/03/10 02:19:34;;;;;;;9.60;6.95;;;1.70;99.90;;;;;;5070104;28;20432;-49
2022/03/10 02:22:08;;;;;;;10.82;7.20;;;1.70;99.90;;;;;;5069419;28;20028;-51
2022/03/10 02:24:36;;;;;;;9.32;7.07;;;1.60;99.90;;;;;;5069852;28;20063;-51
2022/03/10 02:27:16;;;;;;;9.35;6.53;;;1.60;99.90;;;;;;5069517;28;20032;-51
2022/03/10 02:29:43;;;;;;;9.70;6.75;;;1.60;99.90;;;;;;5069906;28;20032;-53
2022/03/10 02:32:10;;;;;;;9.95;7.03;;;1.50;99.90;;;;;;5068635;28;20040;-50
2022/03/10 02:34:36;;;;;;;9.93;7.00;;;1.50;99.90;;;;;;5069921;28;20403;-50
2022/03/10 02:37:02;;;;;;;12.23;7.15;;;1.50;99.90;;;;;;5069529;28;20562;-51
2022/03/10 02:39:27;;;;;;;9.63;6.63;;;1.50;99.90;;;;;;5069649;28;20032;-51
2022/03/10 02:41:53;;;;;;;9.95;7.32;;;1.50;99.90;;;;;;5059786;28;20068;-50
2022/03/10 02:44:18;;;;;;;9.55;6.97;;;1.50;99.90;;;;;;5050983;28;20544;-51
2022/03/10 02:46:44;;;;;;;9.07;6.47;;;1.40;99.90;;;;;;5051499;28;20100;-51
2022/03/10 02:49:10;;;;;;;11.18;7.65;;;1.40;99.90;;;;;;5069814;28;20455;-51
2022/03/10 02:51:36;;;;;;;8.90;6.18;;;1.40;99.90;;;;;;5069216;28;20032;-52
2022/03/10 02:54:01;;;;;;;13.30;8.05;;;1.40;99.90;;;;;;5069256;28;20094;-51
2022/03/10 02:56:27;;;;;;;12.60;7.45;;;1.30;99.90;;;;;;5069399;28;20070;-50
2022/03/10 02:58:53;;;;;;;18.80;8.15;;;1.30;99.90;;;;;;5069473;28;20087;-52
2022/03/10 03:01:18;;;;;;;11.57;7.90;;;1.20;99.90;;;;;;5068970;28;20024;-51
2022/03/10 03:03:44;;;;;;;10.23;7.10;;;1.20;99.90;;;;;;5051282;28;20082;-51
2022/03/10 03:06:09;;;;;;;11.93;7.88;;;1.20;99.90;;;;;;5068570;28;20111;-51
2022/03/10 03:08:35;;;;;;;10.68;7.47;;;1.20;99.90;;;;;;5053138;28;20024;-49
2022/03/10 03:11:00;;;;;;;9.25;7.25;;;1.20;99.90;;;;;;5069349;28;20103;-50
2022/03/10 03:13:26;;;;;;;9.82;6.78;;;1.20;99.90;;;;;;5068993;28;20028;-51
2022/03/10 03:15:51;;;;;;;10.43;7.57;;;1.20;99.90;;;;;;5069179;28;20062;-52
2022/03/10 03:18:17;;;;;;;11.52;6.63;;;1.20;99.90;;;;;;5069366;28;20028;-50
2022/03/10 03:20:43;;;;;;;11.93;7.20;;;1.10;99.90;;;;;;5069505;28;20024;-51
2022/03/10 03:23:09;;;;;;;11.05;7.00;;;1.10;99.90;;;;;;5051070;28;20037;-50
2022/03/10 03:25:34;;;;;;;10.48;8.27;;;1.00;99.90;;;;;;5069048;28;20106;-51
2022/03/10 03:28:00;;;;;;;10.18;7.88;;;1.00;99.90;;;;;;5069142;28;20170;-52
2022/03/10 03:30:25;;;;;;;9.57;7.13;;;0.90;99.90;;;;;;5069216;28;20035;-50
2022/03/10 03:32:51;;;;;;;11.88;8.63;;;0.90;99.90;;;;;;5069272;28;20032;-51
2022/03/10 03:35:16;;;;;;;12.93;7.50;;;0.80;99.90;;;;;;5069422;28;20100;-50
2022/03/10 03:37:42;;;;;;;9.50;7.72;;;0.80;99.90;;;;;;5068530;28;20031;-53
2022/03/10 03:40:09;;;;;;;9.82;7.03;;;0.80;99.90;;;;;;5069204;28;20116;-50
2022/03/10 03:42:35;;;;;;;12.15;7.43;;;0.80;99.90;;;;;;5058989;28;20029;-50
2022/03/10 03:45:02;;;;;;;13.05;7.65;;;0.80;99.90;;;;;;5068523;28;20031;-50
2022/03/10 03:47:28;;;;;;;10.15;7.68;;;0.80;99.90;;;;;;5068702;28;20032;-51
2022/03/10 03:49:54;;;;;;;12.38;8.07;;;0.70;99.90;;;;;;5068814;28;20107;-49
2022/03/10 03:52:19;;;;;;;11.30;7.85;;;0.80;99.90;;;;;;5067866;28;20036;-50
2022/03/10 03:54:45;;;;;;;10.70;7.28;;;0.70;99.90;;;;;;5069970;28;20028;-48
2022/03/10 03:57:10;;;;;;;10.88;7.07;;;0.70;99.90;;;;;;5072618;28;20123;-48
2022/03/10 03:59:36;;;;;;;15.73;8.30;;;0.70;99.90;;;;;;5072372;28;20480;-50
2022/03/10 04:02:02;;;;;;;12.40;8.18;;;0.70;99.90;;;;;;5071934;28;20040;-50
2022/03/10 04:04:27;;;;;;;10.50;7.63;;;0.70;99.90;;;;;;5071064;28;20031;-50
2022/03/10 04:06:53;;;;;;;11.27;7.93;;;0.70;99.90;;;;;;5072474;28;20035;-50
2022/03/10 04:09:18;;;;;;;11.10;7.53;;;0.70;99.90;;;;;;5072324;28;20597;-50
2022/03/10 04:11:45;;;;;;;14.40;8.63;;;0.70;99.90;;;;;;5072322;28;20384;-50
2022/03/10 04:14:11;;;;;;;14.50;8.45;;;0.60;99.90;;;;;;5071804;28;20480;-49
2022/03/10 04:16:38;;;;;;;12.65;8.45;;;0.70;99.90;;;;;;5069375;28;20032;-50
2022/03/10 04:19:04;;;;;;;14.05;8.90;;;0.70;99.90;;;;;;5071861;28;20032;-50
2022/03/10 04:21:30;;;;;;;13.82;8.30;;;0.60;99.90;;;;;;5071894;28;20032;-50
2022/03/10 04:23:55;;;;;;;11.98;8.27;;;0.60;99.90;;;;;;5071757;28;20074;-49
2022/03/10 04:26:21;;;;;;;12.73;8.02;;;0.60;99.90;;;;;;5071262;28;20031;-50
2022/03/10 04:28:46;;;;;;;11.57;9.25;;;0.60;99.90;;;;;;5072185;28;20476;-51
2022/03/10 04:31:12;;;;;;;14.27;8.70;;;0.60;99.90;;;;;;5071426;28;20032;-51
2022/03/10 04:33:38;;;;;;;12.98;7.95;;;0.60;99.90;;;;;;5071417;28;20032;-51
2022/03/10 04:36:04;;;;;;;11.85;7.78;;;0.50;99.90;;;;;;5071112;28;20024;-50
2022/03/10 04:38:29;;;;;;;15.43;9.57;;;0.50;99.90;;;;;;5071756;28;20032;-50
2022/03/10 04:40:55;;;;;;;10.85;7.93;;;0.50;99.90;;;;;;5058458;28;20478;-50
2022/03/10 04:43:21;;;;;;;13.63;8.82;;;0.50;99.90;;;;;;5068325;28;20036;-50
2022/03/10 04:45:46;;;;;;;11.70;8.30;;;0.50;99.90;;;;;;5071649;28;20028;-51
2022/03/10 04:48:12;;;;;;;12.23;8.90;;;0.50;99.90;;;;;;5063929;28;20505;-50
2022/03/10 04:50:38;;;;;;;12.63;8.40;;;0.50;99.90;;;;;;5062516;28;20058;-49
2022/03/10 04:53:04;;;;;;;14.00;9.77;;;0.40;99.90;;;;;;5071129;28;20033;-50
2022/03/10 04:55:30;;;;;;;14.15;8.77;;;0.40;99.90;;;;;;5071500;28;20021;-50
2022/03/10 04:57:56;;;;;;;15.00;9.80;;;0.40;99.90;;;;;;5071620;28;20025;-50
2022/03/10 05:00:22;;;;;;;12.80;8.10;;;0.30;99.90;;;;;;5072425;28;20039;-52
2022/03/10 05:02:47;;;;;;;15.60;9.13;;;0.40;99.90;;;;;;5071459;28;20526;-50
2022/03/10 05:05:14;;;;;;;13.10;9.15;;;0.40;99.90;;;;;;5071127;28;20024;-49
2022/03/10 05:07:41;;;;;;;12.68;9.50;;;0.40;99.90;;;;;;5070360;28;20032;-50
2022/03/10 05:10:07;;;;;;;14.63;9.40;;;0.40;99.90;;;;;;5070934;28;20507;-52
2022/03/10 05:12:33;;;;;;;15.02;10.02;;;0.40;99.90;;;;;;5070412;28;20017;-49
2022/03/10 05:14:59;;;;;;;17.98;10.35;;;0.40;99.90;;;;;;5070696;28;20515;-49
2022/03/10 05:17:24;;;;;;;13.77;9.88;;;0.40;99.90;;;;;;5070611;28;20013;-51
2022/03/10 05:19:51;;;;;;;14.55;10.25;;;0.40;99.90;;;;;;5071237;28;20028;-51
2022/03/10 05:22:17;;;;;;;16.17;9.65;;;0.40;99.90;;;;;;5070558;28;20497;-50
2022/03/10 05:24:43;;;;;;;13.38;8.63;;;0.40;99.90;;;;;;5070715;28;20063;-51
2022/03/10 05:27:09;;;;;;;14.75;8.88;;;0.40;99.90;;;;;;5070728;28;20035;-50
2022/03/10 05:29:40;;;;;;;12.57;8.70;;;0.40;99.90;;;;;;5070620;28;20050;-49
2022/03/10 05:32:11;;;;;;;15.00;10.48;;;0.40;99.90;;;;;;5070377;28;20024;-48
2022/03/10 05:34:37;;;;;;;16.73;10.05;;;0.30;99.90;;;;;;5070956;28;20021;-50
2022/03/10 05:37:02;;;;;;;13.85;9.35;;;0.30;99.90;;;;;;5070737;28;20124;-50
2022/03/10 05:39:28;;;;;;;15.23;10.23;;;0.30;99.90;;;;;;5070558;28;20142;-50
2022/03/10 05:41:54;;;;;;;13.95;9.80;;;0.30;99.90;;;;;;5070291;28;20028;-48
2022/03/10 05:44:20;;;;;;;14.38;9.38;;;0.30;99.90;;;;;;5070267;28;20036;-52
2022/03/10 05:46:45;;;;;;;14.48;9.60;;;0.30;99.90;;;;;;5070010;28;20032;-50
2022/03/10 05:49:11;;;;;;;17.13;10.57;;;0.20;99.90;;;;;;5070202;28;20025;-50
2022/03/10 05:51:36;;;;;;;17.23;10.25;;;0.20;99.90;;;;;;5070015;28;20107;-48
2022/03/10 05:54:03;;;;;;;14.57;9.20;;;0.20;99.90;;;;;;5070052;28;20102;-49
2022/03/10 05:56:29;;;;;;;16.95;9.93;;;0.20;99.90;;;;;;5070352;28;20029;-49
2022/03/10 05:58:54;;;;;;;17.15;10.60;;;0.10;99.90;;;;;;5072158;28;20024;-47
2022/03/10 06:01:20;;;;;;;17.17;10.38;;;0.10;99.90;;;;;;5070570;28;20097;-50
2022/03/10 06:03:45;;;;;;;18.20;9.95;;;0.10;99.90;;;;;;5070440;28;20029;-47
2022/03/10 06:06:13;;;;;;;13.45;9.48;;;0.10;99.90;;;;;;5070322;28;20032;-49
2022/03/10 06:08:39;;;;;;;15.98;9.98;;;0.10;99.90;;;;;;5070276;28;20539;-49
2022/03/10 06:11:05;;;;;;;13.32;9.68;;;0.10;99.90;;;;;;5069912;28;20036;-49
2022/03/10 06:13:30;;;;;;;15.07;10.23;;;0.10;99.90;;;;;;5069698;28;20534;-50
2022/03/10 06:15:56;;;;;;;17.25;9.95;;;0.10;99.90;;;;;;5069908;28;20029;-51
2022/03/10 06:18:21;;;;;;;16.48;9.80;;;0.10;99.90;;;;;;5068892;28;20074;-50
2022/03/10 06:20:47;;;;;;;14.10;9.38;;;0.10;99.90;;;;;;5069694;28;20028;-50
2022/03/10 06:23:12;;;;;;;15.05;10.38;;;0.10;99.90;;;;;;5069856;28;20028;-49
2022/03/10 06:25:38;;;;;;;15.88;9.18;;;0.10;99.90;;;;;;5069472;28;20032;-50
2022/03/10 06:28:04;;;;;;;14.27;10.25;;;0.10;99.90;;;;;;5069500;28;20033;-48
2022/03/10 06:30:30;;;;;;;15.45;10.10;;;0.10;99.90;;;;;;5069739;28;20032;-48
2022/03/10 06:32:55;;;;;;;13.18;10.00;;;0.10;99.90;;;;;;5069474;28;20060;-49
2022/03/10 06:35:21;;;;;;;17.85;10.70;;;0.20;99.90;;;;;;5069585;28;20021;-51
2022/03/10 06:37:47;;;;;;;16.00;10.40;;;0.20;99.90;;;;;;5069909;28;20020;-52
2022/03/10 06:40:13;;;;;;;13.93;9.32;;;0.20;99.90;;;;;;5069627;28;20016;-51
2022/03/10 06:42:39;;;;;;;15.98;10.48;;;0.20;99.90;;;;;;5051658;28;20032;-50
2022/03/10 06:45:05;;;;;;;19.70;10.93;;;0.20;99.90;;;;;;5069711;28;20044;-52
2022/03/10 06:47:30;;;;;;;16.67;10.43;;;0.30;99.90;;;;;;5069653;28;20052;-50
2022/03/10 06:49:56;;;;;;;16.17;11.50;;;0.30;99.90;;;;;;5069151;28;20056;-50
2022/03/10 06:52:21;;;;;;;16.92;11.05;;;0.40;99.90;;;;;;5069061;28;20075;-48
2022/03/10 06:54:47;;;;;;;18.45;10.57;;;0.50;99.90;;;;;;5069631;28;20021;-49
2022/03/10 06:57:14;;;;;;;14.55;9.43;;;0.50;99.90;;;;;;5069108;28;20044;-49
2022/03/10 06:59:40;;;;;;;16.42;10.18;;;0.60;99.90;;;;;;5069293;28;20104;-51
2022/03/10 07:02:06;;;;;;;16.83;10.52;;;0.60;99.90;;;;;;5068542;28;20154;-50
2022/03/10 07:04:32;;;;;;;17.17;10.25;;;0.70;99.90;;;;;;5069365;28;20093;-51
2022/03/10 07:06:58;;;;;;;14.60;10.77;;;0.80;99.90;;;;;;5069336;28;20435;-50
2022/03/10 07:09:24;;;;;;;16.05;10.57;;;0.90;99.90;;;;;;5069569;28;20035;-53
2022/03/10 07:11:49;;;;;;;14.38;10.52;;;1.00;99.90;;;;;;5068872;28;20033;-50
2022/03/10 07:14:15;;;;;;;15.35;10.23;;;1.00;99.90;;;;;;5069144;28;20043;-47
2022/03/10 07:16:41;;;;;;;21.27;10.60;;;1.10;99.90;;;;;;5060169;28;20025;-50
2022/03/10 07:19:09;;;;;;;17.35;9.82;;;1.20;99.90;;;;;;5069493;28;20044;-50
2022/03/10 07:21:35;;;;;;;16.27;10.68;;;1.30;99.90;;;;;;5069274;28;20531;-50
2022/03/10 07:24:01;;;;;;;16.02;9.80;;;1.40;99.90;;;;;;5069557;28;20099;-51
2022/03/10 07:26:26;;;;;;;14.95;9.48;;;1.50;99.90;;;;;;5056916;28;20119;-49
2022/03/10 07:28:52;;;;;;;13.88;9.43;;;1.60;99.90;;;;;;5067970;28;20035;-49
2022/03/10 07:31:18;;;;;;;14.95;9.90;;;1.70;99.90;;;;;;5076530;28;20031;-48
2022/03/10 07:33:44;;;;;;;14.60;10.07;;;1.80;99.90;;;;;;5072797;28;20396;-49
2022/03/10 07:36:10;;;;;;;21.20;9.48;;;1.90;99.90;;;;;;5072993;28;20047;-49
2022/03/10 07:38:35;;;;;;;12.90;9.73;;;2.00;99.90;;;;;;5072833;28;20075;-49
2022/03/10 07:41:01;;;;;;;16.33;10.55;;;2.10;99.90;;;;;;5061343;28;20079;-51
2022/03/10 07:43:26;;;;;;;14.75;9.57;;;2.20;99.90;;;;;;5072156;28;20071;-49
2022/03/10 07:45:52;;;;;;;15.90;10.52;;;2.40;99.90;;;;;;5073158;28;20033;-49
2022/03/10 07:48:18;;;;;;;15.52;10.02;;;2.50;99.90;;;;;;5072731;28;20032;-49
2022/03/10 07:50:44;;;;;;;13.25;8.95;;;2.60;99.90;;;;;;5072601;28;20549;-52
2022/03/10 07:53:09;;;;;;;14.13;9.50;;;2.70;99.90;;;;;;5072666;28;20033;-51
2022/03/10 07:55:35;;;;;;;15.45;9.95;;;2.80;99.90;;;;;;5072837;28;20029;-50
2022/03/10 07:58:01;;;;;;;14.48;10.02;;;2.90;99.90;;;;;;5055178;28;20438;-54
2022/03/10 08:00:27;;;;;;;16.60;10.80;;;3.10;99.90;;;;;;5070239;28;20389;-51
2022/03/10 08:02:52;;;;;;;18.25;9.90;;;3.10;99.90;;;;;;5070514;28;20510;-49
2022/03/10 08:05:18;;;;;;;14.00;9.30;;;3.20;99.90;;;;;;5069732;28;20028;-51
2022/03/10 08:07:44;;;;;;;14.85;9.88;;;3.20;99.90;;;;;;5054710;28;20119;-52
2022/03/10 08:10:10;;;;;;;15.63;10.55;;;3.40;99.90;;;;;;5072385;28;20063;-50
2022/03/10 08:12:36;;;;;;;16.08;10.45;;;3.50;99.90;;;;;;5071872;28;20078;-49
2022/03/10 08:15:02;;;;;;;14.98;10.57;;;3.70;99.90;;;;;;5072411;28;20024;-52
2022/03/10 08:17:28;;;;;;;13.98;9.80;;;3.80;99.90;;;;;;5071318;28;20028;-52
2022/03/10 08:19:55;;;;;;;13.80;9.90;;;4.00;99.90;;;;;;5072696;28;20024;-50
2022/03/10 08:22:21;;;;;;;15.20;9.52;;;4.20;99.90;;;;;;5071970;28;20079;-49
2022/03/10 08:24:47;;;;;;;15.77;9.68;;;4.50;99.90;;;;;;5072290;28;20036;-47
2022/03/10 08:27:17;;;;;;;14.15;9.43;;;4.70;99.90;;;;;;5071797;28;20032;-51
2022/03/10 08:29:44;;;;;;;16.35;10.30;;;4.90;99.90;;;;;;5072429;28;20097;-52
2022/03/10 08:32:10;;;;;;;13.18;9.55;;;5.10;99.90;;;;;;5071799;28;20028;-52
2022/03/10 08:34:36;;;;;;;14.90;10.13;;;5.30;99.90;;;;;;5072088;28;20032;-51
2022/03/10 08:37:02;;;;;;;13.60;8.85;;;5.50;99.90;;;;;;5053915;28;20095;-52
2022/03/10 08:39:28;;;;;;;13.32;9.38;;;5.70;99.90;;;;;;5072305;28;20021;-54
2022/03/10 08:41:54;;;;;;;14.02;9.18;;;5.90;99.90;;;;;;5070840;28;20090;-48
2022/03/10 08:44:20;;;;;;;11.65;8.45;;;6.10;99.90;;;;;;5071951;28;20404;-54
2022/03/10 08:46:47;;;;;;;9.55;8.43;;;6.30;99.90;;;;;;5071625;28;20512;-52
2022/03/10 08:49:13;;;;;;;13.38;9.82;;;6.50;99.90;;;;;;5071789;28;20039;-52
2022/03/10 08:51:39;;;;;;;13.50;9.05;;;6.60;99.90;;;;;;5071852;28;20074;-52
2022/03/10 08:54:05;;;;;;;12.93;9.63;;;6.70;99.90;;;;;;5071418;28;20542;-51
2022/03/10 08:56:31;;;;;;;12.35;9.23;;;6.90;99.90;;;;;;5071771;28;20021;-51
2022/03/10 08:58:56;;;;;;;15.32;8.95;;;7.00;99.90;;;;;;5071548;28;20060;-54
2022/03/10 09:01:22;;;;;;;16.75;8.93;;;7.10;99.90;;;;;;5071765;28;20058;-52
2022/03/10 09:03:47;;;;;;;11.73;8.45;;;7.40;99.90;;;;;;5053485;28;20621;-50
2022/03/10 09:06:14;;;;;;;11.63;8.57;;;7.50;99.90;;;;;;5071993;28;20078;-55
2022/03/10 09:08:40;;;;;;;11.32;8.75;;;7.70;99.90;;;;;;5071480;28;20070;-51
2022/03/10 09:11:06;;;;;;;11.68;8.82;;;7.90;99.90;;;;;;5069259;28;20024;-53
2022/03/10 09:13:32;;;;;;;12.55;8.65;;;8.00;99.90;;;;;;5071559;28;20056;-52
2022/03/10 09:15:58;;;;;;;13.55;8.75;;;8.10;99.90;;;;;;5053930;28;20017;-52
2022/03/10 09:18:23;;;;;;;10.85;8.10;;;8.20;99.90;;;;;;5071645;28;20032;-53
2022/03/10 09:20:50;;;;;;;10.43;7.45;;;8.40;99.90;;;;;;5071138;28;20123;-53
2022/03/10 09:23:15;;;;;;;11.13;8.13;;;8.50;99.50;;;;;;5071834;28;20124;-53
2022/03/10 09:25:41;;;;;;;16.92;8.50;;;8.50;99.40;;;;;;5071003;28;20111;-54
2022/03/10 09:28:07;;;;;;;15.05;8.65;;;8.60;99.60;;;;;;5071117;28;20750;-52
2022/03/10 09:30:32;;;;;;;11.63;7.85;;;8.70;98.40;;;;;;5071374;28;20441;-53
2022/03/10 09:32:58;;;;;;;13.20;8.13;;;8.90;99.30;;;;;;5071061;28;20052;-53
2022/03/10 09:35:25;;;;;;;13.88;8.43;;;9.00;98.60;;;;;;5105284;22;20523;-55
2022/03/10 09:37:52;;;;;;;11.48;7.82;;;9.10;98.90;;;;;;5072435;28;20134;-53
2022/03/10 09:40:18;;;;;;;10.68;7.63;;;9.30;98.70;;;;;;5090503;28;20030;-53
2022/03/10 09:42:47;;;;;;;10.27;7.65;;;9.40;98.30;;;;;;5103064;28;20030;-56
2022/03/10 09:45:13;;;;;;;15.02;8.10;;;9.60;97.10;;;;;;5092989;28;20024;-50
2022/03/10 09:47:42;;;;;;;10.73;7.45;;;9.70;97.30;;;;;;5098307;28;20429;-55
2022/03/10 09:50:10;;;;;;;8.38;6.22;;;9.80;97.00;;;;;;5090408;28;20027;-54
2022/03/10 09:52:36;;;;;;;9.82;6.93;;;9.90;95.40;;;;;;5090150;28;20031;-55
2022/03/10 09:55:04;;;;;;;10.25;7.55;;;10.00;96.10;;;;;;5091069;28;20016;-54
2022/03/10 09:57:29;;;;;;;11.48;7.40;;;10.10;96.20;;;;;;5090281;28;20571;-53
2022/03/10 09:59:59;;;;;;;10.10;7.22;;;10.20;94.30;;;;;;5090744;28;20027;-56
2022/03/10 10:02:27;;;;;;;9.30;7.63;;;10.20;94.10;;;;;;5089812;28;20028;-53
2022/03/10 10:04:53;;;;;;;11.23;7.22;;;10.30;94.60;;;;;;5072187;28;20020;-54
2022/03/10 10:07:21;;;;;;;11.02;7.55;;;10.30;93.20;;;;;;5090439;28;20134;-51
2022/03/10 10:09:51;;;;;;;11.27;7.85;;;10.40;94.40;;;;;;5089944;28;20028;-55
2022/03/10 10:12:17;;;;;;;12.07;7.43;;;10.50;93.40;;;;;;5090055;28;20492;-52
2022/03/10 10:14:45;;;;;;;13.27;8.13;;;10.60;93.60;;;;;;5089315;28;20042;-54
2022/03/10 10:17:11;;;;;;;15.57;7.78;;;10.70;92.40;;;;;;5090131;28;20573;-55
2022/03/10 10:19:40;;;;;;;9.82;7.05;;;10.70;92.20;;;;;;5089999;28;20024;-55
2022/03/10 10:22:17;;;;;;;11.02;7.70;;;10.70;92.90;;;;;;5090108;28;20020;-53
2022/03/10 10:24:49;;;;;;;10.15;7.10;;;10.70;92.30;;;;;;5089862;28;20031;-56
2022/03/10 10:27:21;;;;;;;12.43;8.05;;;10.70;91.90;;;;;;5072021;28;20394;-52
2022/03/10 10:29:51;;;;;;;11.48;7.43;;;10.80;91.80;;;;;;5089926;28;20459;-52
2022/03/10 10:32:34;;;;;;;11.77;7.88;;;10.90;90.80;;;;;;5089944;28;20044;-54
2022/03/10 10:35:11;;;;;;;13.95;7.68;;;11.00;90.70;;;;;;5088944;28;20107;-53
2022/03/10 10:37:38;;;;;;;9.23;7.45;;;10.90;90.80;;;;;;5089512;28;20028;-57
2022/03/10 10:40:06;;;;;;;10.48;8.13;;;11.00;91.30;;;;;;5090019;28;20530;-52
2022/03/10 10:42:34;;;;;;;12.38;7.55;;;11.10;90.30;;;;;;5089266;28;20028;-52
2022/03/10 10:45:00;;;;;;;9.23;7.00;;;11.20;90.70;;;;;;5089656;28;20016;-55
2022/03/10 10:47:27;;;;;;;12.10;6.97;;;11.30;90.10;;;;;;5089261;28;20028;-55
2022/03/10 10:50:02;;;;;;;12.35;7.65;;;11.30;89.00;;;;;;5089083;28;20024;-52
2022/03/10 10:52:39;;;;;;;9.03;7.33;;;11.30;87.80;;;;;;5089495;28;20028;-52
2022/03/10 10:55:08;;;;;;;9.73;7.53;;;11.30;88.30;;;;;;5089414;28;20419;-51
2022/03/10 10:57:38;;;;;;;12.88;7.68;;;11.30;87.50;;;;;;5091761;28;20024;-50
2022/03/10 11:00:05;;;;;;;11.10;7.28;;;11.40;87.60;;;;;;5088527;28;20027;-56
2022/03/10 11:02:31;;;;;;;10.20;7.22;;;11.40;86.60;;;;;;5089078;28;20027;-54
2022/03/10 11:04:58;;;;;;;13.95;7.60;;;11.30;84.70;;;;;;5088830;28;20027;-51
2022/03/10 11:07:24;;;;;;;10.23;8.27;;;11.30;86.60;;;;;;5089533;28;20081;-55
2022/03/10 11:09:54;;;;;;;10.52;7.60;;;11.40;87.80;;;;;;5071691;28;20020;-51
2022/03/10 11:12:19;;;;;;;10.90;7.40;;;11.40;86.60;;;;;;5089593;28;20028;-56
2022/03/10 11:14:46;;;;;;;15.77;8.43;;;11.50;83.00;;;;;;5089501;28;20365;-55
2022/03/10 11:17:15;;;;;;;10.10;6.93;;;11.40;84.00;;;;;;5089343;28;20020;-50
2022/03/10 11:19:46;;;;;;;14.98;8.02;;;11.30;82.80;;;;;;5089309;28;20085;-53
2022/03/10 11:22:19;;;;;;;13.10;7.85;;;11.20;84.90;;;;;;5090097;28;20085;-55
2022/03/10 11:24:50;;;;;;;12.05;6.95;;;11.20;83.50;;;;;;5089399;28;20020;-50
2022/03/10 11:27:42;;;;;;;12.48;7.30;;;11.10;82.80;;;;;;5089534;28;20039;-50
2022/03/10 11:30:09;;;;;;;11.27;7.25;;;11.10;82.20;;;;;;5088685;28;20036;-53
2022/03/10 11:32:34;;;;;;;9.55;7.50;;;11.00;82.10;;;;;;5088663;28;20097;-54
2022/03/10 11:35:01;;;;;;;10.65;7.53;;;11.10;85.10;;;;;;5089180;28;20040;-52
2022/03/10 11:37:42;;;;;;;9.25;7.20;;;11.10;82.90;;;;;;5071069;28;20021;-51
2022/03/10 11:40:46;;;;;;;10.48;7.38;;;11.20;83.70;;;;;;5089583;28;20028;-53
2022/03/10 11:43:20;;;;;;;12.05;7.32;;;11.20;83.20;;;;;;5088692;28;20115;-52
2022/03/10 11:45:46;;;;;;;11.30;7.45;;;11.30;84.10;;;;;;5088802;28;20028;-53
2022/03/10 11:48:30;;;;;;;9.70;7.22;;;11.40;84.60;;;;;;5089476;28;20059;-53
2022/03/10 11:50:56;;;;;;;11.35;7.13;;;11.40;81.70;;;;;;5088753;28;20101;-51
2022/03/10 11:53:21;;;;;;;10.52;7.25;;;11.50;82.30;;;;;;5088233;28;20459;-50
2022/03/10 11:55:50;;;;;;;11.00;8.00;;;11.50;80.70;;;;;;5088540;28;20145;-56
2022/03/10 11:58:18;;;;;;;8.55;6.78;;;11.50;80.70;;;;;;5082616;28;20016;-56
2022/03/10 12:00:44;;;;;;;13.68;7.63;;;11.50;81.90;;;;;;5081718;28;20025;-54
2022/03/10 12:03:10;;;;;;;10.95;7.65;;;11.50;80.90;;;;;;5088114;28;20094;-53
2022/03/10 12:05:55;;;;;;;9.98;7.63;;;11.50;80.20;;;;;;5087686;28;20036;-53
2022/03/10 12:08:22;;;;;;;9.85;7.15;;;11.50;80.70;;;;;;5087220;28;20146;-55
2022/03/10 12:10:48;;;;;;;12.93;7.78;;;11.50;81.10;;;;;;5084299;28;20030;-53
2022/03/10 12:13:23;;;;;;;11.15;7.90;;;11.60;81.70;;;;;;5086949;28;20020;-52
2022/03/10 12:15:49;;;;;;;9.45;6.60;;;11.60;80.90;;;;;;5087820;28;20027;-54
2022/03/10 12:18:19;;;;;;;13.30;7.90;;;11.70;81.60;;;;;;5090235;28;20052;-54
2022/03/10 12:20:46;;;;;;;9.85;6.93;;;11.70;79.10;;;;;;5085368;28;20024;-52
2022/03/10 12:23:15;;;;;;;11.57;7.72;;;11.80;81.60;;;;;;5084756;28;20071;-50
2022/03/10 12:25:52;;;;;;;9.45;7.28;;;11.80;79.40;;;;;;5089484;28;20085;-51
2022/03/10 12:28:31;;;;;;;10.23;7.65;;;11.80;78.80;;;;;;5091023;28;20597;-56
2022/03/10 12:31:03;;;;;;;9.13;7.30;;;11.80;79.40;;;;;;5091498;28;20386;-55
2022/03/10 12:33:29;;;;;;;9.95;7.60;;;11.80;79.40;;;;;;5090846;28;20114;-51
2022/03/10 12:35:57;;;;;;;11.15;6.78;;;11.80;78.50;;;;;;5075330;28;20065;-49
2022/03/10 12:38:46;;;;;;;12.32;7.20;;;11.80;77.20;;;;;;5088026;28;20012;-52
2022/03/10 12:41:17;;;;;;;10.35;7.35;;;11.80;79.30;;;;;;5091189;28;20107;-52
2022/03/10 12:43:42;;;;;;;11.95;7.93;;;11.80;77.70;;;;;;5088685;28;20039;-52
2022/03/10 12:46:08;;;;;;;11.60;8.48;;;11.80;77.60;;;;;;5059231;28;20028;-52
2022/03/10 12:48:44;;;;;;;9.20;7.38;;;11.80;77.80;;;;;;5091253;28;20040;-55
2022/03/10 12:51:23;;;;;;;10.70;7.82;;;11.80;76.70;;;;;;5089943;28;20112;-52
2022/03/10 12:53:51;;;;;;;12.23;8.43;;;11.80;78.60;;;;;;5090723;28;20111;-51